ADDS TAF Board (Experimental) INFO Settings
IDs: Format: Expanded Condensed

KORD - Chicago/O'Hare Intl, IL, US

Issued at 0845 UTC 27 Jun 2016
Updated at: 1111 UTC 27 Jun 2016
Time1051Z 27/12Z 27/13Z 27/14Z 27/15Z 27/16Z 27/17Z 27/18Z 27/19Z 27/20Z 27/21Z 27/22Z 27/23Z 28/00Z
Type OBS PRVL PRVL PRVL PRVL PRVL PRVL PRVL PRVL PRVL PRVL PRVL PRVL PRVL
VIS 10 >6 >6 >6 >6 >6 >6 >6 >6 >6 >6 >6 >6 >6
CIG -- -- -- -- -- -- -- -- -- -- -- -- -- --
Cover FEW FEW FEW FEW FEW FEW FEW FEW FEW FEW FEW FEW FEW FEW
FltCat VFR VFR VFR VFR VFR VFR VFR VFR VFR VFR VFR VFR VFR VFR
WX -- -- -- -- -- -- -- -- -- -- -- -- -- --
WDir 260 250 250 250 290 290 290 290 290 290 290 290 290 290
WSpd 7 6 6 6 14 14 14 14 14 14 14 14 14 14
WGst -- -- -- -- 21 21 21 21 21 21 21 21 21 21
R04/22
XWnd 5 3 3 3 13 13 13 13 13 13 13 13 13 13
XGst -- -- -- -- 20 20 20 20 20 20 20 20 20 20
HWnd -5 -5 -5 -5 -5 -5 -5 -5 -5 -5 -5 -5 -5 -5
HGst -- -- -- -- -7 -7 -7 -7 -7 -7 -7 -7 -7 -7
R09/27
XWnd -1 -2 -2 -2 5 5 5 5 5 5 5 5 5 5
XGst -- -- -- -- 7 7 7 7 7 7 7 7 7 7
HWnd -7 -6 -6 -6 -13 -13 -13 -13 -13 -13 -13 -13 -13 -13
HGst -- -- -- -- -20 -20 -20 -20 -20 -20 -20 -20 -20 -20
R10/28
XWnd -1 -2 -2 -2 5 5 5 5 5 5 5 5 5 5
XGst -- -- -- -- 7 7 7 7 7 7 7 7 7 7
HWnd -7 -6 -6 -6 -13 -13 -13 -13 -13 -13 -13 -13 -13 -13
HGst -- -- -- -- -20 -20 -20 -20 -20 -20 -20 -20 -20 -20
R14/32
XWnd -6 -6 -6 -6 -7 -7 -7 -7 -7 -7 -7 -7 -7 -7
XGst -- -- -- -- -11 -11 -11 -11 -11 -11 -11 -11 -11 -11
HWnd -4 -2 -2 -2 -12 -12 -12 -12 -12 -12 -12 -12 -12 -12
HGst -- -- -- -- -18 -18 -18 -18 -18 -18 -18 -18 -18 -18

NOTE: TEMPO conditions in [brackets]. Keep in mind TEMPO conditions might be better (lower impact) than prevailing conditions.

Raw TAF
KORD 270845Z 2709/2812 25006KT P6SM FEW250
  FM271500 29014G21KT P6SM FEW250
  FM280200 34010KT P6SM SCT100


Raw METAR
KORD 271051Z 26007KT 10SM FEW250 21/18 A3003 RMK AO2 SLP162 T02110178 $
KORD 270951Z 25005KT 10SM FEW250 21/18 A3002 RMK AO2 SLP161 T02060178 $
KORD 270851Z 26006KT 10SM FEW250 21/18 A3002 RMK AO2 SLP159 T02110178 58004 $

METAR Board
Radar Display
Forecast Discussion

TAF Board Legend

Potential Impact
Threat None Slight Moderate High
Visibility (sm) ≥5.1 5.1>X≥3 3>X≥1 <1
Ceiling (100 ft) ≥30.1 30.1>X≥10 10>X≥5 <5
Wind Speed (kt) <10 10≤X<20 20≤X<30 ≥30
Wind Gust (kt) <15 15≤X<25 25≤X<35 ≥35
Weather No Wx Reported VCTS,-TS,-FZRA,SN TS,FZRA +TS,+FZRA,+SN